Time;durP1;ratioP1;P1;durP2;ratioP2;P2;SDS_P1;SDS_P2;PMS_P1;PMS_P2;Temp;Humidity;BMP_temperature;BMP_pressure;BME280_temperature;BME280_humidity;BME280_pressure;Samples;Min_cycle;Max_cycle;Signal;HPM_P1;HPM_P2
2023/01/07 00:02:27;;;;;;;11.50;9.50;;;;;;;7.86;76.59;100769.71;108276;1282;23687;-79
2023/01/07 00:04:57;;;;;;;11.80;9.90;;;;;;;7.85;76.49;100768.86;108298;1280;21951;-78
2023/01/07 00:07:29;;;;;;;10.80;9.70;;;;;;;7.85;76.53;100769.58;108210;1282;21927;-78
2023/01/07 00:10:01;;;;;;;13.20;9.50;;;;;;;7.82;76.44;100768.75;108272;1262;21926;-79
2023/01/07 00:12:31;;;;;;;9.90;8.20;;;;;;;7.78;76.33;100763.97;108628;1275;21931;-78
2023/01/07 00:15:01;;;;;;;9.90;8.90;;;;;;;7.74;76.22;100760.40;108618;1270;23064;-78
2023/01/07 00:17:36;;;;;;;11.40;9.30;;;;;;;7.70;76.11;100759.63;108566;1277;24292;-82
2023/01/07 00:20:06;;;;;;;10.30;9.20;;;;;;;7.66;76.18;100757.11;108596;1277;22403;-78
2023/01/07 00:22:41;;;;;;;11.20;9.00;;;;;;;7.61;76.21;100753.21;108537;1277;23698;-77
2023/01/07 00:25:13;;;;;;;15.10;10.70;;;;;;;7.58;76.16;100755.88;108725;1276;24386;-78
2023/01/07 00:27:48;;;;;;;10.10;9.10;;;;;;;7.54;76.13;100752.48;108634;1275;22000;-78
2023/01/07 00:30:19;;;;;;;14.80;11.20;;;;;;;7.51;76.07;100756.37;108575;1278;23618;-77
2023/01/07 00:33:05;;;;;;;13.20;10.40;;;;;;;7.48;76.15;100755.39;108367;1279;22061;-78
2023/01/07 00:35:37;;;;;;;12.80;11.30;;;;;;;7.43;76.07;100756.67;108419;1279;24581;-78
2023/01/07 00:38:10;;;;;;;11.80;10.60;;;;;;;7.40;76.02;100755.86;108383;1274;21947;-77
2023/01/07 00:40:43;;;;;;;10.80;9.80;;;;;;;7.36;76.07;100755.08;108307;1281;21936;-79
2023/01/07 00:43:15;;;;;;;20.10;11.90;;;;;;;7.32;76.00;100756.36;108390;1280;22699;-78
2023/01/07 00:45:50;;;;;;;11.40;10.20;;;;;;;7.27;75.97;100760.76;108050;1285;23602;-77
2023/01/07 00:48:22;;;;;;;14.20;11.20;;;;;;;7.22;75.91;100764.31;107879;1286;21954;-77
2023/01/07 00:50:53;;;;;;;10.90;9.60;;;;;;;7.18;75.88;100774.78;108136;1285;21966;-78
2023/01/07 00:53:24;;;;;;;12.60;10.80;;;;;;;7.14;75.99;100779.01;108118;1286;24307;-78
2023/01/07 00:55:55;;;;;;;13.00;10.90;;;;;;;7.09;75.92;100776.65;107850;1286;21948;-77
2023/01/07 00:58:25;;;;;;;13.60;12.20;;;;;;;7.04;75.89;100776.05;108271;1282;21916;-78
2023/01/07 01:01:00;;;;;;;14.90;11.80;;;;;;;7.00;75.95;100778.36;108174;1281;21976;-77
2023/01/07 01:03:32;;;;;;;12.00;10.80;;;;;;;6.96;75.99;100776.52;108264;1276;22761;-76
2023/01/07 01:06:12;;;;;;;11.90;10.80;;;;;;;6.95;76.01;100780.86;108295;1282;21930;-78
2023/01/07 01:08:46;;;;;;;13.60;12.20;;;;;;;6.92;76.22;100781.61;108374;1279;21957;-77
2023/01/07 01:11:17;;;;;;;15.20;13.10;;;;;;;6.91;76.28;100782.48;108560;1279;21935;-78
2023/01/07 01:13:51;;;;;;;17.00;12.80;;;;;;;6.92;76.33;100775.38;108361;1280;21999;-78
2023/01/07 01:16:23;;;;;;;18.50;14.10;;;;;;;6.92;76.34;100780.06;108297;1282;22896;-78
2023/01/07 01:18:57;;;;;;;16.20;14.10;;;;;;;6.90;76.26;100784.73;108218;1281;23017;-78
2023/01/07 01:21:27;;;;;;;13.90;11.30;;;;;;;6.88;76.24;100790.13;108437;1280;22126;-78
2023/01/07 01:23:57;;;;;;;12.30;11.10;;;;;;;6.86;76.16;100792.09;108264;1276;23691;-77
2023/01/07 01:26:27;;;;;;;13.40;12.00;;;;;;;6.83;76.22;100791.60;108572;1277;23616;-79
2023/01/07 01:28:56;;;;;;;20.80;13.30;;;;;;;6.84;76.32;100792.11;108557;1277;21949;-78
2023/01/07 01:31:28;;;;;;;16.90;13.40;;;;;;;6.85;76.48;100798.49;108455;1277;22800;-76
2023/01/07 01:33:59;;;;;;;14.90;12.50;;;;;;;6.88;76.62;100794.46;108562;1277;23010;-77
2023/01/07 01:36:29;;;;;;;15.20;13.00;;;;;;;6.91;76.67;100789.56;108689;1276;21951;-78
2023/01/07 01:39:03;;;;;;;16.00;13.20;;;;;;;6.94;76.71;100785.89;108652;1275;21936;-78
2023/01/07 01:41:35;;;;;;;15.60;13.00;;;;;;;6.95;76.73;100785.70;108621;1277;22614;-79
2023/01/07 01:44:35;;;;;;;16.40;12.70;;;;;;;6.97;76.70;100786.52;108713;1276;24495;-77
2023/01/07 01:47:20;;;;;;;15.70;13.00;;;;;;;6.96;76.67;100782.41;108650;1277;21925;-77
2023/01/07 01:50:25;;;;;;;15.00;13.40;;;;;;;6.96;76.59;100779.63;108521;1276;21950;-78
2023/01/07 01:53:27;;;;;;;14.90;13.10;;;;;;;6.94;76.68;100780.70;108590;1275;21928;-78
2023/01/07 01:56:09;;;;;;;15.30;13.30;;;;;;;6.95;76.69;100780.17;108525;1276;23686;-79
2023/01/07 01:59:02;;;;;;;17.80;13.60;;;;;;;6.96;76.73;100776.70;108622;1278;21949;-79
2023/01/07 02:01:34;;;;;;;;;;;;;;;6.95;76.69;100774.11;108618;1276;23664;-78
2023/01/07 02:04:12;;;;;;;15.90;12.70;;;;;;;6.87;76.78;100780.48;108579;1275;22075;-78
2023/01/07 02:07:01;;;;;;;15.70;13.20;;;;;;;6.84;76.69;100782.08;108613;1275;23043;-78
2023/01/07 02:09:32;;;;;;;15.80;14.10;;;;;;;6.83;76.67;100778.81;108506;1276;21949;-79
2023/01/07 02:12:24;;;;;;;14.80;13.30;;;;;;;6.83;76.65;100782.96;108478;1273;21979;-79
2023/01/07 02:15:44;;;;;;;15.40;13.80;;;;;;;6.81;76.63;100786.11;108582;1277;21937;-79
2023/01/07 02:18:35;;;;;;;16.50;14.60;;;;;;;6.75;76.68;100778.40;108340;1282;23702;-77
2023/01/07 02:21:13;;;;;;;17.20;15.50;;;;;;;6.73;76.66;100775.67;108337;1278;21942;-77
2023/01/07 02:24:16;;;;;;;17.30;15.60;;;;;;;6.73;76.61;100771.68;108388;1282;21976;-76
2023/01/07 02:27:22;;;;;;;18.30;16.40;;;;;;;6.73;76.81;100766.85;108411;1280;22013;-77
2023/01/07 02:30:38;;;;;;;18.90;17.10;;;;;;;6.76;77.09;100762.48;108322;1280;21968;-79
2023/01/07 02:33:33;;;;;;;19.80;17.10;;;;;;;6.80;77.28;100757.56;108090;1278;21931;-79
2023/01/07 02:36:36;;;;;;;18.00;15.40;;;;;;;6.84;77.29;100751.28;107451;1288;21937;-78
2023/01/07 02:39:21;;;;;;;21.80;15.40;;;;;;;6.88;77.37;100750.02;107471;1287;22427;-78
2023/01/07 02:42:03;;;;;;;18.50;16.80;;;;;;;6.93;77.48;100756.15;107394;1293;22091;-79
2023/01/07 02:44:38;;;;;;;;;;;;;;;6.95;77.35;100762.17;106061;1292;1881313;-78
2023/01/07 02:48:02;;;;;;;18.90;16.60;;;;;;;6.90;77.42;100769.35;107585;1292;22009;-78
2023/01/07 02:50:31;;;;;;;17.90;16.10;;;;;;;6.88;77.40;100780.63;106632;1300;23584;-78
2023/01/07 02:53:01;;;;;;;20.10;16.40;;;;;;;6.90;77.27;100789.41;107219;1292;21981;-78
2023/01/07 02:56:16;;;;;;;18.50;16.70;;;;;;;6.93;77.32;100785.04;107139;1294;21988;-78
2023/01/07 02:59:04;;;;;;;21.00;18.70;;;;;;;6.94;77.34;100788.15;106878;1298;21981;-78
2023/01/07 03:01:54;;;;;;;24.90;19.60;;;;;;;6.95;77.30;100787.09;106864;1298;21957;-78
2023/01/07 03:04:46;;;;;;;21.60;19.40;;;;;;;6.97;77.39;100783.94;106864;1298;24302;-78
2023/01/07 03:07:50;;;;;;;21.40;18.90;;;;;;;7.03;77.57;100789.20;106920;1298;21974;-78
2023/01/07 03:10:47;;;;;;;20.40;18.40;;;;;;;7.06;77.50;100791.23;106755;1299;21924;-78
2023/01/07 03:13:22;;;;;;;21.00;18.80;;;;;;;7.08;77.49;100788.61;107168;1289;21945;-76
2023/01/07 03:16:12;;;;;;;19.50;17.40;;;;;;;7.09;77.34;100784.63;107683;1288;22007;-77
2023/01/07 03:18:54;;;;;;;20.80;18.50;;;;;;;7.08;77.35;100782.56;107229;1292;21954;-79
2023/01/07 03:21:27;;;;;;;19.70;17.60;;;;;;;7.06;77.27;100783.63;107246;1295;22102;-77
2023/01/07 03:23:58;;;;;;;20.00;17.90;;;;;;;7.07;77.39;100783.61;107269;1295;21970;-76
2023/01/07 03:26:40;;;;;;;20.20;18.00;;;;;;;7.11;77.44;100787.35;107331;1291;21941;-77
2023/01/07 03:29:14;;;;;;;21.70;19.40;;;;;;;7.13;77.40;100786.10;107123;1293;21949;-78
2023/01/07 03:31:57;;;;;;;20.50;18.50;;;;;;;7.15;77.36;100788.67;107260;1295;23735;-78
2023/01/07 03:34:31;;;;;;;19.70;17.70;;;;;;;7.16;77.31;100787.27;107857;1287;21965;-77
2023/01/07 03:37:13;;;;;;;22.20;20.00;;;;;;;7.17;77.27;100787.08;107830;1286;24289;-78
2023/01/07 03:39:45;;;;;;;21.10;18.90;;;;;;;7.16;77.21;100786.41;108218;1280;21934;-78
2023/01/07 03:42:41;;;;;;;23.20;20.70;;;;;;;7.17;77.23;100786.91;108476;1279;21955;-78
2023/01/07 03:45:20;;;;;;;26.50;23.80;;;;;;;7.13;77.27;100788.71;108261;1280;21969;-77
2023/01/07 03:47:54;;;;;;;28.30;23.40;;;;;;;7.13;77.36;100789.73;108097;1282;21959;-77
2023/01/07 03:50:25;;;;;;;26.70;23.50;;;;;;;7.17;77.37;100788.80;108415;1281;23633;-77
2023/01/07 03:52:54;;;;;;;27.30;22.00;;;;;;;7.20;77.33;100792.58;108232;1275;22030;-77
2023/01/07 03:55:24;;;;;;;25.50;22.80;;;;;;;7.23;77.34;100790.79;108366;1282;21978;-77
2023/01/07 03:57:56;;;;;;;23.20;20.80;;;;;;;7.24;77.21;100791.64;108211;1282;23695;-77
2023/01/07 04:00:26;;;;;;;21.50;19.40;;;;;;;7.24;77.23;100790.61;108265;1280;22704;-78
2023/01/07 04:03:00;;;;;;;25.40;23.00;;;;;;;7.26;77.32;100792.13;108454;1281;23587;-78
2023/01/07 04:05:34;;;;;;;30.30;26.90;;;;;;;7.25;77.15;100790.59;108279;1277;23094;-78
2023/01/07 04:08:04;;;;;;;28.50;25.20;;;;;;;7.24;77.13;100793.90;108622;1277;23625;-78
2023/01/07 04:10:35;;;;;;;;;;;;;;;7.26;77.27;100792.30;108490;1277;21964;-78
2023/01/07 04:13:05;;;;;;;37.20;33.50;;;;;;;7.18;77.39;100795.02;108596;1277;22643;-78
2023/01/07 04:15:36;;;;;;;35.30;30.10;;;;;;;7.17;77.33;100795.23;108524;1279;23090;-77
2023/01/07 04:18:06;;;;;;;38.40;34.10;;;;;;;7.18;77.43;100789.33;108493;1280;23774;-76
2023/01/07 04:20:36;;;;;;;37.80;34.00;;;;;;;7.20;77.34;100787.71;108351;1280;22412;-78
2023/01/07 04:23:05;;;;;;;50.20;45.40;;;;;;;7.19;77.13;100786.52;108520;1280;21945;-78
2023/01/07 04:25:41;;;;;;;38.90;34.80;;;;;;;7.18;77.15;100784.64;108250;1278;23044;-77
2023/01/07 04:28:12;;;;;;;30.10;27.10;;;;;;;7.18;77.20;100784.83;108116;1281;23048;-78
2023/01/07 04:30:42;;;;;;;25.50;21.80;;;;;;;7.19;77.22;100789.13;108122;1285;21950;-78
2023/01/07 04:33:12;;;;;;;28.10;25.20;;;;;;;7.22;77.39;100788.55;107746;1285;23549;-79
2023/01/07 04:35:45;;;;;;;29.90;26.80;;;;;;;7.23;77.33;100784.21;107898;1286;21954;-78
2023/01/07 04:38:15;;;;;;;29.60;25.10;;;;;;;7.23;77.23;100776.95;107956;1283;23599;-78
2023/01/07 04:40:45;;;;;;;27.40;24.50;;;;;;;7.19;77.03;100769.38;107929;1287;22895;-78
2023/01/07 04:43:15;;;;;;;25.80;23.10;;;;;;;7.16;76.98;100767.88;108087;1286;21939;-78
2023/01/07 04:45:45;;;;;;;26.10;23.20;;;;;;;7.15;76.99;100766.35;107834;1281;21962;-78
2023/01/07 04:48:16;;;;;;;26.60;23.20;;;;;;;7.13;77.03;100764.30;107494;1288;22564;-78
2023/01/07 04:50:47;;;;;;;24.60;20.70;;;;;;;7.11;77.08;100762.61;107653;1283;21943;-77
2023/01/07 04:53:16;;;;;;;82.50;62.60;;;;;;;7.05;76.84;100763.56;108199;1283;22038;-77
2023/01/07 04:55:47;;;;;;;52.40;47.10;;;;;;;6.96;76.72;100766.99;108161;1283;21967;-77
2023/01/07 04:58:21;;;;;;;28.20;24.90;;;;;;;6.89;76.73;100771.27;108081;1283;23621;-78
2023/01/07 05:00:56;;;;;;;31.70;28.40;;;;;;;6.83;76.97;100776.38;107985;1283;21973;-78
2023/01/07 05:03:29;;;;;;;36.50;30.30;;;;;;;6.85;77.16;100778.08;108156;1282;24426;-78
2023/01/07 05:06:00;;;;;;;31.80;28.60;;;;;;;6.87;77.24;100776.48;108158;1277;21894;-78
2023/01/07 05:08:35;;;;;;;29.30;26.30;;;;;;;6.89;77.36;100774.91;108272;1281;21956;-77
2023/01/07 05:11:05;;;;;;;31.00;25.50;;;;;;;6.91;77.35;100770.02;108203;1282;21989;-78
2023/01/07 05:13:36;;;;;;;30.20;26.20;;;;;;;6.93;77.43;100768.95;107942;1285;22751;-78
2023/01/07 05:16:06;;;;;;;31.20;27.70;;;;;;;6.95;77.44;100769.28;107957;1285;21940;-77
2023/01/07 05:18:39;;;;;;;33.70;30.00;;;;;;;6.96;77.45;100767.52;107931;1285;21945;-78
2023/01/07 05:21:10;;;;;;;34.80;29.80;;;;;;;6.96;77.33;100762.33;108056;1285;21947;-78
2023/01/07 05:23:40;;;;;;;34.80;31.10;;;;;;;6.95;77.12;100758.89;107859;1285;21966;-77
2023/01/07 05:26:11;;;;;;;34.50;30.60;;;;;;;6.90;77.07;100757.94;108067;1282;21946;-78
2023/01/07 05:28:41;;;;;;;36.00;31.90;;;;;;;6.83;76.96;100759.94;108188;1282;21973;-78
2023/01/07 05:31:11;;;;;;;37.60;33.40;;;;;;;6.76;77.01;100758.67;108231;1277;23794;-76
2023/01/07 05:33:42;;;;;;;37.50;33.10;;;;;;;6.71;77.10;100763.60;108229;1277;21940;-76
2023/01/07 05:36:12;;;;;;;36.70;31.20;;;;;;;6.65;77.24;100766.80;108449;1276;23602;-76
2023/01/07 05:38:43;;;;;;;35.70;31.00;;;;;;;6.63;77.32;100764.04;108410;1276;22163;-78
2023/01/07 05:41:15;;;;;;;35.60;31.70;;;;;;;6.61;77.29;100762.88;108166;1282;21987;-78
2023/01/07 05:43:45;;;;;;;37.50;33.40;;;;;;;6.58;77.28;100763.09;108206;1282;22115;-78
2023/01/07 05:46:15;;;;;;;34.60;30.90;;;;;;;6.56;77.25;100767.96;108301;1282;22406;-79
2023/01/07 05:48:45;;;;;;;35.90;32.10;;;;;;;6.56;77.46;100770.91;108242;1282;24293;-78
2023/01/07 05:51:15;;;;;;;35.50;31.70;;;;;;;6.57;77.55;100774.16;108172;1282;23110;-77
2023/01/07 05:53:45;;;;;;;39.40;34.80;;;;;;;6.59;77.53;100769.98;108153;1282;21965;-77
2023/01/07 05:56:15;;;;;;;40.80;36.70;;;;;;;6.60;77.51;100771.02;108138;1282;22324;-77
2023/01/07 05:58:45;;;;;;;41.70;36.10;;;;;;;6.58;77.47;100774.67;108236;1276;23701;-77
2023/01/07 06:01:15;;;;;;;33.10;29.60;;;;;;;6.56;77.48;100771.08;108314;1281;22563;-78
2023/01/07 06:03:44;;;;;;;35.30;31.50;;;;;;;6.54;77.52;100773.01;108351;1280;21967;-78
2023/01/07 06:06:16;;;;;;;36.60;32.50;;;;;;;6.52;77.53;100772.52;108322;1280;22301;-78
2023/01/07 06:08:46;;;;;;;33.00;29.50;;;;;;;6.52;77.54;100770.45;108317;1280;21997;-77
2023/01/07 06:11:19;;;;;;;38.30;32.30;;;;;;;6.50;77.53;100773.42;108226;1280;23590;-78
2023/01/07 06:13:49;;;;;;;34.60;31.20;;;;;;;6.49;77.47;100776.71;108292;1280;21976;-78
2023/01/07 06:16:21;;;;;;;42.60;38.20;;;;;;;6.46;77.42;100776.25;108349;1280;21940;-78
2023/01/07 06:18:51;;;;;;;33.90;30.50;;;;;;;6.41;77.48;100777.52;108332;1276;21966;-78
2023/01/07 06:21:22;;;;;;;34.30;30.70;;;;;;;6.37;77.54;100779.12;108584;1276;23064;-77
2023/01/07 06:23:55;;;;;;;42.90;34.80;;;;;;;6.36;77.64;100780.00;108268;1280;22074;-76
2023/01/07 06:26:25;;;;;;;33.10;29.80;;;;;;;6.35;77.61;100783.11;108228;1275;22725;-76
2023/01/07 06:28:57;;;;;;;;;;;;;;;6.32;77.64;100780.74;107967;1284;21919;-77
2023/01/07 06:31:32;;;;;;;101.30;91.90;;;;;;;6.21;77.85;100786.77;107741;1289;21961;-76
2023/01/07 06:34:02;;;;;;;46.70;42.00;;;;;;;6.18;77.85;100794.92;107448;1289;23625;-77
2023/01/07 06:36:32;;;;;;;44.60;34.10;;;;;;;6.20;77.93;100799.58;107423;1281;23139;-76
2023/01/07 06:39:02;;;;;;;30.30;26.10;;;;;;;6.20;77.97;100801.13;107235;1294;23275;-76
2023/01/07 06:41:32;;;;;;;30.00;26.80;;;;;;;6.19;77.87;100800.26;107073;1295;23113;-76
2023/01/07 06:44:04;;;;;;;28.30;24.40;;;;;;;6.21;78.03;100800.77;107292;1289;23067;-77
2023/01/07 06:46:36;;;;;;;27.40;23.90;;;;;;;6.25;78.14;100800.55;107204;1292;23873;-77
2023/01/07 06:49:06;;;;;;;26.50;23.90;;;;;;;6.27;78.07;100806.05;107681;1282;22037;-77
2023/01/07 06:51:36;;;;;;;23.20;20.90;;;;;;;6.30;78.09;100811.02;108163;1270;21938;-76
2023/01/07 06:54:06;;;;;;;32.20;27.10;;;;;;;6.32;78.11;100812.90;108194;1281;21946;-76
2023/01/07 06:56:47;;;;;;;76.30;47.50;;;;;;;6.35;78.00;100817.35;108306;1276;21919;-78
2023/01/07 06:59:20;;;;;;;75.10;53.20;;;;;;;6.35;77.93;100818.21;108493;1277;21943;-79
2023/01/07 07:01:52;;;;;;;55.20;40.40;;;;;;;6.35;77.92;100817.34;108823;1277;22027;-77
2023/01/07 07:04:22;;;;;;;35.40;31.40;;;;;;;6.36;77.93;100817.01;108225;1281;23077;-77
2023/01/07 07:06:51;;;;;;;25.80;23.30;;;;;;;6.37;77.89;100820.09;108335;1261;23166;-77
2023/01/07 07:09:32;;;;;;;103.30;94.00;;;;;;;6.32;77.66;100821.71;108318;1272;23091;-77
2023/01/07 07:12:07;;;;;;;149.70;135.60;;;;;;;6.23;77.59;100818.20;108154;1280;23862;-77
2023/01/07 07:14:39;;;;;;;63.30;56.40;;;;;;;6.20;77.90;100815.46;108327;1280;23148;-77
2023/01/07 07:17:09;;;;;;;83.60;62.10;;;;;;;6.21;77.96;100813.73;108165;1280;23609;-78
2023/01/07 07:19:42;;;;;;;37.20;29.80;;;;;;;6.20;77.94;100821.00;107768;1288;23882;-78
2023/01/07 07:22:29;;;;;;;34.60;28.30;;;;;;;6.12;77.99;100826.27;107337;1288;21946;-77
2023/01/07 07:25:05;;;;;;;42.10;33.10;;;;;;;6.04;77.93;100822.39;107729;1288;22214;-76
2023/01/07 07:27:42;;;;;;;45.20;34.80;;;;;;;6.00;78.05;100827.45;107510;1289;21964;-76
2023/01/07 07:30:14;;;;;;;32.30;29.10;;;;;;;5.99;78.16;100830.73;107696;1287;23697;-78
2023/01/07 07:32:47;;;;;;;32.70;29.40;;;;;;;5.99;78.10;100833.86;107482;1292;23095;-78
2023/01/07 07:35:22;;;;;;;35.60;31.10;;;;;;;5.97;78.12;100842.85;107441;1292;23983;-77
2023/01/07 07:38:04;;;;;;;38.00;34.10;;;;;;;5.98;78.26;100843.36;107777;1288;22459;-82
2023/01/07 07:40:42;;;;;;;37.40;33.30;;;;;;;6.03;78.36;100840.38;108488;1280;21933;-82
2023/01/07 07:43:22;;;;;;;45.00;38.80;;;;;;;6.06;78.44;100839.98;108521;1281;21949;-83
2023/01/07 07:46:02;;;;;;;46.50;38.90;;;;;;;6.08;78.33;100836.52;108357;1279;23047;-82
2023/01/07 07:48:33;;;;;;;57.90;48.00;;;;;;;6.06;78.21;100835.50;108531;1278;22134;-83
2023/01/07 07:51:04;;;;;;;69.10;51.70;;;;;;;6.05;78.10;100834.30;108676;1281;21933;-83
2023/01/07 07:53:42;;;;;;;72.50;57.40;;;;;;;5.97;78.15;100837.67;108818;1279;21925;-83
2023/01/07 07:56:15;;;;;;;69.20;58.00;;;;;;;5.91;78.12;100836.67;108461;1284;23680;-86
2023/01/07 07:58:48;;;;;;;68.00;54.10;;;;;;;5.89;78.40;100836.70;108691;1273;21966;-81
2023/01/07 08:01:19;;;;;;;75.50;55.10;;;;;;;5.91;78.42;100834.60;108559;1280;23917;-81
2023/01/07 08:03:53;;;;;;;74.90;51.60;;;;;;;5.90;78.44;100827.88;108457;1285;22011;-82
2023/01/07 08:06:28;;;;;;;72.60;52.70;;;;;;;5.88;78.52;100833.60;108328;1282;21912;-82
2023/01/07 08:09:01;;;;;;;72.40;52.80;;;;;;;5.88;78.58;100837.56;108574;1284;21954;-84
2023/01/07 08:11:36;;;;;;;63.80;44.40;;;;;;;5.90;78.55;100839.27;108519;1285;22904;-84
2023/01/07 08:14:11;;;;;;;59.90;42.60;;;;;;;5.91;78.45;100837.38;108594;1281;23024;-82
2023/01/07 08:16:43;;;;;;;68.40;42.90;;;;;;;5.91;78.44;100831.69;108781;1280;22400;-82
2023/01/07 08:19:16;;;;;;;75.50;42.80;;;;;;;5.91;78.49;100826.48;108547;1283;21970;-83
2023/01/07 08:21:47;;;;;;;64.40;48.00;;;;;;;5.93;78.56;100816.63;108278;1280;21915;-82
2023/01/07 08:24:21;;;;;;;63.80;40.20;;;;;;;5.98;78.69;100812.95;108620;1280;23615;-81
2023/01/07 08:27:05;;;;;;;61.60;47.70;;;;;;;6.03;78.69;100812.04;108840;1280;22236;-83
2023/01/07 08:29:37;;;;;;;68.10;42.90;;;;;;;6.05;78.59;100812.88;108567;1280;21975;-80
2023/01/07 08:32:11;;;;;;;56.50;40.10;;;;;;;6.00;78.48;100812.77;108592;1280;24501;-83
2023/01/07 08:34:44;;;;;;;67.30;44.20;;;;;;;5.99;78.55;100807.43;108621;1276;23600;-81
2023/01/07 08:37:19;;;;;;;76.30;49.00;;;;;;;6.01;78.62;100809.31;108895;1274;21926;-81
2023/01/07 08:39:56;;;;;;;56.30;40.40;;;;;;;6.08;78.75;100811.98;108902;1268;23088;-80
2023/01/07 08:42:29;;;;;;;63.20;40.80;;;;;;;6.13;78.66;100814.34;108820;1274;22392;-80
2023/01/07 08:45:21;;;;;;;70.80;46.20;;;;;;;6.21;78.71;100821.33;108752;1275;21923;-80
2023/01/07 08:48:00;;;;;;;54.20;39.90;;;;;;;6.29;78.63;100826.42;108776;1276;21980;-79
2023/01/07 08:50:58;;;;;;;55.20;41.30;;;;;;;6.31;78.38;100829.85;108725;1280;21929;-80
2023/01/07 08:53:38;;;;;;;58.20;45.40;;;;;;;6.33;78.29;100832.27;108526;1281;23079;-79
2023/01/07 08:56:23;;;;;;;61.40;44.60;;;;;;;6.37;78.19;100836.69;108463;1284;21992;-81
2023/01/07 08:59:04;;;;;;;61.40;43.50;;;;;;;6.41;78.10;100838.54;108263;1283;21962;-80
2023/01/07 09:01:54;;;;;;;61.60;45.20;;;;;;;6.43;78.09;100835.92;108410;1283;21946;-80
2023/01/07 09:04:49;;;;;;;67.40;47.50;;;;;;;6.52;78.52;100834.75;108296;1283;23103;-81
2023/01/07 09:07:23;;;;;;;65.50;41.60;;;;;;;6.65;78.53;100838.21;108297;1285;21946;-80
2023/01/07 09:10:20;;;;;;;62.00;44.70;;;;;;;6.71;78.36;100838.66;108260;1285;21945;-80
2023/01/07 09:13:00;;;;;;;64.40;48.30;;;;;;;6.75;78.12;100837.73;108657;1280;21990;-80
2023/01/07 09:15:59;;;;;;;62.00;47.40;;;;;;;6.83;78.15;100842.98;108257;1283;21869;-81
2023/01/07 09:18:37;;;;;;;60.00;44.60;;;;;;;6.87;78.04;100844.84;108469;1281;21947;-81
2023/01/07 09:21:21;;;;;;;64.80;50.00;;;;;;;6.93;78.03;100843.71;108172;1283;23671;-80
2023/01/07 09:24:13;;;;;;;59.20;47.20;;;;;;;6.99;77.99;100841.88;107897;1288;21974;-80
2023/01/07 09:27:11;;;;;;;70.00;49.80;;;;;;;7.04;77.83;100847.67;108498;1284;23101;-84
2023/01/07 09:31:05;;;;;;;84.70;61.60;;;;;;;7.09;78.01;100842.75;108459;1283;21968;-82
2023/01/07 09:34:32;;;;;;;58.90;44.00;;;;;;;7.17;77.86;100841.77;108458;1285;21995;-81
2023/01/07 09:38:44;;;;;;;;;;;;;;;;;;;;;
2023/01/07 09:49:16;;;;;;;65.80;55.00;;;;;;;6.91;77.15;100808.96;108169;1288;22455;-80
2023/01/07 09:52:42;;;;;;;59.60;43.20;;;;;;;6.90;77.52;100807.92;107791;1289;21947;-81
2023/01/07 09:55:53;;;;;;;57.60;44.20;;;;;;;7.06;77.89;100795.22;107949;1289;24383;-84
2023/01/07 09:59:04;;;;;;;56.90;45.20;;;;;;;7.21;77.78;100786.66;107652;1286;23620;-82
2023/01/07 10:02:40;;;;;;;56.50;45.50;;;;;;;7.38;77.97;100786.02;107485;1294;22349;-81
2023/01/07 10:05:47;;;;;;;57.50;45.40;;;;;;;7.58;77.82;100783.23;107504;1294;24297;-80
2023/01/07 10:09:06;;;;;;;58.10;44.70;;;;;;;7.79;77.73;100783.19;107095;1296;22080;-81
2023/01/07 10:12:16;;;;;;;51.70;41.80;;;;;;;8.11;78.03;100782.55;106991;1298;22186;-80
2023/01/07 10:15:31;;;;;;;48.40;39.40;;;;;;;8.46;77.98;100775.42;107257;1297;21998;-81
2023/01/07 10:18:22;;;;;;;49.70;42.80;;;;;;;8.75;77.49;100766.77;107256;1291;23738;-80
2023/01/07 10:21:40;;;;;;;44.30;36.90;;;;;;;9.02;76.97;100762.33;107569;1287;22864;-81
2023/01/07 10:24:32;;;;;;;47.00;41.20;;;;;;;9.25;76.46;100759.99;107102;1301;22117;-80
2023/01/07 10:27:17;;;;;;;50.90;45.40;;;;;;;9.45;75.63;100755.30;107462;1292;22138;-81
2023/01/07 10:29:58;;;;;;;63.40;50.20;;;;;;;9.52;74.35;100747.13;108006;1289;21993;-81
2023/01/07 10:32:35;;;;;;;48.10;42.30;;;;;;;9.54;73.95;100745.67;107867;1287;22162;-80
2023/01/07 10:35:16;;;;;;;51.20;45.80;;;;;;;9.60;73.95;100743.11;107920;1290;23625;-80
2023/01/07 10:37:50;;;;;;;53.60;47.30;;;;;;;9.76;73.90;100743.52;107764;1289;22043;-81
2023/01/07 10:40:43;;;;;;;86.40;76.40;;;;;;;9.85;73.26;100742.39;107482;1294;23695;-79
2023/01/07 10:43:48;;;;;;;50.90;45.00;;;;;;;9.96;73.00;100745.40;107492;1294;23636;-79
2023/01/07 10:47:23;;;;;;;42.00;37.30;;;;;;;10.05;72.50;100741.82;107816;1287;22718;-81
2023/01/07 10:50:23;;;;;;;43.90;38.50;;;;;;;10.12;71.97;100748.05;107660;1291;23450;-79
2023/01/07 10:53:09;;;;;;;26.20;23.50;;;;;;;10.21;71.24;100746.58;106728;1298;21981;-79
2023/01/07 10:56:35;;;;;;;27.70;22.20;;;;;;;10.30;71.19;100747.17;106844;1298;21969;-79
2023/01/07 10:59:16;;;;;;;26.20;23.50;;;;;;;10.52;71.03;100741.11;106423;1302;22734;-78
2023/01/07 11:01:56;;;;;;;25.90;23.10;;;;;;;10.79;70.83;100737.82;106866;1295;23781;-78
2023/01/07 11:04:26;;;;;;;27.30;23.90;;;;;;;11.08;69.91;100735.30;107359;1292;23775;-79
2023/01/07 11:07:06;;;;;;;29.40;25.90;;;;;;;11.50;68.99;100734.88;107454;1291;22076;-79
2023/01/07 11:09:44;;;;;;;25.10;22.00;;;;;;;12.31;70.06;100730.69;107438;1292;21962;-78
2023/01/07 11:12:26;;;;;;;21.50;19.30;;;;;;;13.13;68.46;100725.48;107967;1285;24372;-81
2023/01/07 11:14:59;;;;;;;22.10;19.90;;;;;;;13.71;65.50;100718.23;107879;1286;21965;-78
2023/01/07 11:17:47;;;;;;;26.50;23.30;;;;;;;14.13;63.16;100718.29;107547;1292;22068;-77
2023/01/07 11:20:45;;;;;;;24.20;21.80;;;;;;;14.25;60.88;100711.55;107549;1292;21946;-79
2023/01/07 11:23:36;;;;;;;20.40;18.20;;;;;;;14.03;59.75;100707.52;107489;1292;22779;-79
2023/01/07 11:26:12;;;;;;;21.10;18.40;;;;;;;13.78;59.95;100707.62;107757;1286;23590;-79
2023/01/07 11:28:58;;;;;;;21.90;19.70;;;;;;;13.57;60.04;100703.48;108069;1286;22091;-79
2023/01/07 11:32:10;;;;;;;22.80;19.50;;;;;;;13.49;60.45;100696.33;107876;1286;21932;-79
2023/01/07 11:35:01;;;;;;;27.60;22.10;;;;;;;13.35;59.71;100690.63;107711;1285;21971;-78
2023/01/07 11:37:34;;;;;;;24.20;21.60;;;;;;;13.00;59.09;100691.77;108311;1275;22238;-78
2023/01/07 11:40:11;;;;;;;26.80;24.10;;;;;;;12.70;59.38;100691.61;108587;1279;21942;-79
2023/01/07 11:43:02;;;;;;;44.90;40.40;;;;;;;12.44;59.88;100692.87;108539;1278;23020;-78
2023/01/07 11:45:48;;;;;;;36.00;32.60;;;;;;;12.18;60.23;100688.62;108552;1279;21923;-79
2023/01/07 11:48:46;;;;;;;43.60;39.00;;;;;;;11.87;61.15;100691.02;108564;1278;21945;-78
2023/01/07 11:51:15;;;;;;;40.40;36.30;;;;;;;11.76;62.09;100687.44;108246;1280;22721;-78
2023/01/07 11:53:48;;;;;;;28.20;25.00;;;;;;;11.68;62.32;100689.13;108337;1280;22362;-79
2023/01/07 11:56:20;;;;;;;27.10;24.30;;;;;;;11.55;62.47;100684.01;108563;1279;23025;-79
2023/01/07 11:59:12;;;;;;;24.90;22.00;;;;;;;11.46;63.02;100682.05;108625;1277;22158;-77
2023/01/07 12:01:59;;;;;;;28.30;25.20;;;;;;;11.40;63.37;100680.39;108640;1279;23758;-78
2023/01/07 12:04:32;;;;;;;30.80;27.50;;;;;;;11.31;63.48;100679.98;108536;1280;21936;-78
2023/01/07 12:07:16;;;;;;;46.80;41.90;;;;;;;11.17;63.30;100676.65;108494;1280;21960;-79
2023/01/07 12:09:46;;;;;;;34.90;31.30;;;;;;;10.94;63.33;100674.47;108452;1279;21952;-78
2023/01/07 12:12:38;;;;;;;34.80;31.40;;;;;;;10.85;64.00;100675.83;108226;1279;23586;-79
2023/01/07 12:15:22;;;;;;;41.40;36.90;;;;;;;10.86;64.63;100672.14;108543;1279;21942;-78
2023/01/07 12:18:26;;;;;;;32.00;27.30;;;;;;;10.90;64.83;100669.90;108296;1280;23704;-78
2023/01/07 12:21:32;;;;;;;31.50;28.20;;;;;;;10.91;64.78;100667.63;108166;1281;22926;-78